Time;durP1;ratioP1;P1;durP2;ratioP2;P2;SDS_P1;SDS_P2;PMS_P1;PMS_P2;Temp;Humidity;BMP_temperature;BMP_pressure;BME280_temperature;BME280_humidity;BME280_pressure;Samples;Min_cycle;Max_cycle;Signal;HPM_P1;HPM_P2
2022/05/06 00:01:40;;;;;;;42.95;13.77;;;8.40;70.40;;;;;;4179805;28;20029;-83
2022/05/06 00:03:40;;;;;;;42.20;13.43;;;8.40;70.50;;;;;;4177184;28;20036;-82
2022/05/06 00:05:41;;;;;;;49.58;12.90;;;8.40;70.60;;;;;;4179662;28;20040;-83
2022/05/06 00:07:42;;;;;;;63.92;13.55;;;8.30;70.80;;;;;;4183915;28;20048;-83
2022/05/06 00:09:44;;;;;;;39.00;12.40;;;8.30;71.00;;;;;;4168759;28;20041;-83
2022/05/06 00:11:44;;;;;;;75.97;13.25;;;8.30;71.10;;;;;;4175123;28;20037;-82
2022/05/06 00:13:45;;;;;;;40.88;12.77;;;8.30;71.30;;;;;;4183729;28;20036;-82
2022/05/06 00:15:46;;;;;;;49.20;12.90;;;8.30;71.40;;;;;;4176083;28;20040;-83
2022/05/06 00:17:46;;;;;;;71.75;12.30;;;8.30;71.50;;;;;;4180845;28;20020;-83
2022/05/06 00:19:47;;;;;;;56.38;12.32;;;8.30;71.70;;;;;;4181119;28;20071;-82
2022/05/06 00:21:48;;;;;;;90.30;13.73;;;8.30;71.90;;;;;;4182508;28;20047;-83
2022/05/06 00:23:48;;;;;;;96.03;13.05;;;8.30;71.90;;;;;;4181628;28;20032;-83
2022/05/06 00:25:49;;;;;;;87.07;11.38;;;8.30;72.10;;;;;;4181629;28;20040;-83
2022/05/06 00:27:50;;;;;;;59.67;12.55;;;8.30;72.20;;;;;;4145994;28;20033;-83
2022/05/06 00:29:50;;;;;;;29.40;12.00;;;8.20;72.30;;;;;;4181266;28;20067;-82
2022/05/06 00:31:52;;;;;;;59.85;12.18;;;8.20;72.50;;;;;;4184939;28;20337;-83
2022/05/06 00:33:52;;;;;;;48.78;11.75;;;8.20;72.60;;;;;;4178949;28;20512;-82
2022/05/06 00:35:54;;;;;;;86.82;12.05;;;8.20;72.70;;;;;;4162379;28;20026;-82
2022/05/06 00:37:54;;;;;;;73.60;12.45;;;8.30;72.90;;;;;;4162782;28;20022;-82
2022/05/06 00:39:55;;;;;;;49.03;12.68;;;8.30;72.90;;;;;;4159960;28;20094;-82
2022/05/06 00:41:56;;;;;;;63.40;11.68;;;8.20;73.00;;;;;;4158172;28;20025;-83
2022/05/06 00:43:56;;;;;;;134.27;12.98;;;8.20;73.00;;;;;;4159586;28;20025;-83
2022/05/06 00:45:57;;;;;;;67.97;12.05;;;8.30;73.30;;;;;;4177923;28;20083;-82
2022/05/06 00:47:59;;;;;;;45.35;11.32;;;8.20;73.10;;;;;;4178652;28;20036;-82
2022/05/06 00:50:00;;;;;;;63.13;12.80;;;8.30;73.10;;;;;;4174002;28;20032;-82
2022/05/06 00:52:04;;;;;;;51.08;12.18;;;8.30;73.50;;;;;;4178720;28;20028;-83
2022/05/06 00:54:04;;;;;;;;;;;8.20;73.40;;;;;;4178308;28;20523;-82
2022/05/06 00:56:08;;;;;;;32.15;9.13;;;8.20;74.30;;;;;;4180914;28;19927;-82
2022/05/06 00:58:09;;;;;;;58.53;11.10;;;8.20;73.00;;;;;;4159652;28;20025;-83
2022/05/06 01:00:20;;;;;;;63.60;10.52;;;8.20;73.00;;;;;;4179838;28;20503;-83
2022/05/06 01:02:20;;;;;;;61.05;11.20;;;8.20;73.00;;;;;;4175653;28;20032;-82
2022/05/06 01:04:22;;;;;;;56.90;10.82;;;8.10;73.10;;;;;;4175691;28;20020;-82
2022/05/06 01:06:24;;;;;;;60.58;10.32;;;8.20;73.10;;;;;;4179203;28;20029;-82
2022/05/06 01:08:25;;;;;;;86.88;11.38;;;8.10;73.00;;;;;;4181561;28;20079;-83
2022/05/06 01:10:25;;;;;;;80.18;11.23;;;8.10;73.00;;;;;;4158482;28;20026;-83
2022/05/06 01:12:26;;;;;;;62.63;10.73;;;8.10;73.70;;;;;;4173525;28;20093;-84
2022/05/06 01:14:32;;;;;;;49.42;10.10;;;8.10;73.70;;;;;;4177503;28;20111;-83
2022/05/06 01:16:34;;;;;;;67.57;10.77;;;8.10;73.10;;;;;;4158689;28;20030;-82
2022/05/06 01:18:35;;;;;;;70.05;10.13;;;8.10;73.20;;;;;;4156540;28;20030;-83
2022/05/06 01:20:39;;;;;;;58.45;10.13;;;8.00;73.30;;;;;;4176858;28;20503;-82
2022/05/06 01:22:42;;;;;;;81.80;11.23;;;8.00;73.40;;;;;;4162212;28;20329;-82
2022/05/06 01:24:42;;;;;;;80.32;11.02;;;8.00;73.30;;;;;;4177342;28;20043;-82
2022/05/06 01:27:04;;;;;;;61.20;10.27;;;8.00;73.40;;;;;;4181975;28;20052;-82
2022/05/06 01:29:05;;;;;;;41.80;10.13;;;7.90;73.60;;;;;;4179947;28;20029;-82
2022/05/06 01:31:07;;;;;;;58.50;10.50;;;7.90;73.50;;;;;;4181210;28;20558;-83
2022/05/06 01:33:10;;;;;;;74.93;10.95;;;7.90;73.70;;;;;;4174735;28;20543;-83
2022/05/06 01:35:12;;;;;;;30.85;10.40;;;7.90;73.70;;;;;;4181303;28;20025;-82
2022/05/06 01:37:16;;;;;;;37.00;10.18;;;7.90;73.70;;;;;;4160655;28;20069;-83
2022/05/06 01:39:20;;;;;;;35.28;9.80;;;7.90;73.60;;;;;;4183406;28;20028;-83
2022/05/06 01:41:23;;;;;;;47.45;9.65;;;7.90;73.60;;;;;;4176528;28;20025;-82
2022/05/06 01:43:25;;;;;;;;;;;7.80;73.50;;;;;;4178469;28;20105;-83
2022/05/06 01:45:29;;;;;;;22.58;9.25;;;7.80;74.00;;;;;;4174152;28;19952;-83
2022/05/06 01:47:33;;;;;;;33.28;9.63;;;7.80;73.20;;;;;;4177759;28;20036;-83
2022/05/06 01:49:38;;;;;;;35.38;9.07;;;7.80;73.30;;;;;;4181102;28;20492;-83
2022/05/06 01:51:40;;;;;;;21.35;9.07;;;7.70;73.50;;;;;;4161893;28;20041;-82
2022/05/06 01:53:42;;;;;;;32.10;9.85;;;7.80;73.70;;;;;;4159143;28;20030;-82
2022/05/06 01:55:44;;;;;;;25.17;9.77;;;7.70;73.70;;;;;;4162438;28;20599;-83
2022/05/06 01:57:45;;;;;;;56.72;10.18;;;7.70;73.90;;;;;;4180542;28;20049;-82
2022/05/06 01:59:46;;;;;;;27.42;8.75;;;7.70;74.10;;;;;;4180959;28;20033;-83
2022/05/06 02:01:47;;;;;;;22.98;9.05;;;7.60;74.40;;;;;;4142368;28;20022;-83
2022/05/06 02:06:07;;;;;;;24.42;9.38;;;7.70;74.40;;;;;;4179664;28;20017;-83
2022/05/06 02:08:08;;;;;;;24.40;10.00;;;7.60;74.40;;;;;;4163541;28;20025;-83
2022/05/06 02:10:09;;;;;;;27.40;10.25;;;7.70;74.50;;;;;;4162757;28;20064;-83
2022/05/06 02:12:10;;;;;;;22.77;8.85;;;7.60;74.60;;;;;;4181645;28;20029;-83
2022/05/06 02:14:11;;;;;;;41.40;10.63;;;7.60;74.60;;;;;;4184604;28;20016;-83
2022/05/06 02:16:12;;;;;;;33.33;8.95;;;7.60;75.00;;;;;;4165903;28;20061;-83
2022/05/06 02:18:13;;;;;;;77.63;9.77;;;7.70;75.00;;;;;;4165262;28;20029;-83
2022/05/06 02:20:16;;;;;;;48.97;9.68;;;7.70;74.90;;;;;;4168617;28;20117;-82
2022/05/06 02:22:16;;;;;;;;;;;7.60;74.90;;;;;;4164116;28;20029;-83
2022/05/06 02:24:17;;;;;;;48.33;9.63;;;7.70;75.90;;;;;;4169816;28;19962;-83
2022/05/06 02:26:18;;;;;;;38.78;9.35;;;7.70;74.90;;;;;;4180626;28;20024;-83
2022/05/06 02:28:19;;;;;;;44.38;9.13;;;7.70;74.80;;;;;;4179260;28;20036;-82
2022/05/06 02:34:59;;;;;;;51.50;10.70;;;7.70;74.80;;;;;;4164219;28;20024;-82
2022/05/06 02:36:59;;;;;;;39.38;9.45;;;7.70;75.10;;;;;;4148222;28;20034;-84
2022/05/06 02:39:00;;;;;;;49.67;9.75;;;7.70;75.00;;;;;;4179149;28;20029;-83
2022/05/06 02:41:00;;;;;;;29.60;9.07;;;7.70;74.90;;;;;;4163573;28;20659;-83
2022/05/06 02:43:05;;;;;;;46.35;10.88;;;7.70;75.00;;;;;;4180906;28;20059;-83
2022/05/06 02:45:07;;;;;;;56.05;11.18;;;7.70;75.00;;;;;;4183213;28;20487;-83
2022/05/06 02:47:08;;;;;;;56.70;11.38;;;7.70;75.20;;;;;;4169413;28;20028;-83
2022/05/06 02:49:08;;;;;;;23.40;9.43;;;7.70;75.20;;;;;;4168244;28;20029;-85
2022/05/06 02:51:09;;;;;;;41.00;10.68;;;7.70;75.30;;;;;;4180378;28;20067;-83
2022/05/06 02:53:10;;;;;;;47.42;10.48;;;7.70;75.30;;;;;;4164321;28;20049;-83
2022/05/06 02:55:11;;;;;;;39.03;10.32;;;7.70;75.30;;;;;;4168016;28;20044;-83
2022/05/06 02:57:11;;;;;;;44.78;10.40;;;7.70;75.40;;;;;;4164397;28;20022;-83
2022/05/06 02:59:12;;;;;;;46.05;11.25;;;7.70;75.30;;;;;;4164144;28;20029;-83
2022/05/06 03:01:12;;;;;;;39.55;11.07;;;7.70;75.40;;;;;;4163708;28;20032;-83
2022/05/06 03:03:13;;;;;;;37.83;10.75;;;7.70;75.50;;;;;;4178647;28;20029;-83
2022/05/06 03:05:14;;;;;;;40.17;10.35;;;7.70;75.50;;;;;;4181073;28;21406;-83
2022/05/06 03:07:14;;;;;;;31.10;11.13;;;7.80;75.60;;;;;;4183039;28;20119;-83
2022/05/06 03:09:15;;;;;;;47.33;12.20;;;7.70;75.50;;;;;;4182659;28;20094;-83
2022/05/06 03:11:15;;;;;;;28.23;11.35;;;7.70;75.50;;;;;;4179577;28;20033;-83
2022/05/06 03:13:16;;;;;;;27.10;12.32;;;7.80;75.60;;;;;;4161626;28;20029;-83
2022/05/06 03:15:17;;;;;;;29.83;12.23;;;7.70;75.70;;;;;;4181066;28;20100;-83
2022/05/06 03:17:17;;;;;;;24.45;11.88;;;7.70;76.40;;;;;;4183472;28;20032;-83
2022/05/06 03:19:19;;;;;;;25.17;11.55;;;7.80;75.80;;;;;;4179724;28;20025;-83
2022/05/06 03:21:19;;;;;;;40.20;12.77;;;7.80;75.80;;;;;;4181282;28;20082;-84
2022/05/06 03:23:20;;;;;;;35.05;12.90;;;7.90;76.00;;;;;;4180687;28;20092;-83
2022/05/06 03:25:21;;;;;;;29.33;12.40;;;7.90;76.10;;;;;;4179821;28;20025;-83
2022/05/06 03:29:41;;;;;;;32.35;12.13;;;7.80;75.80;;;;;;4188142;28;20443;-83
2022/05/06 03:31:41;;;;;;;19.02;10.13;;;7.90;76.10;;;;;;4179878;28;20029;-83
2022/05/06 03:33:42;;;;;;;21.70;11.38;;;7.90;75.90;;;;;;4166394;28;20509;-83
2022/05/06 03:35:43;;;;;;;25.17;12.13;;;7.80;75.80;;;;;;4185194;28;21346;-84
2022/05/06 03:37:44;;;;;;;27.65;11.75;;;7.80;75.80;;;;;;4165161;28;20412;-84
2022/05/06 03:39:45;;;;;;;26.73;11.30;;;7.80;75.80;;;;;;4180526;28;20029;-83
2022/05/06 03:41:46;;;;;;;29.23;12.13;;;7.80;75.70;;;;;;4164790;28;20152;-83
2022/05/06 03:43:46;;;;;;;26.50;11.35;;;7.80;75.80;;;;;;4160451;28;20040;-83
2022/05/06 03:45:47;;;;;;;28.15;11.98;;;7.80;75.70;;;;;;4175701;28;20024;-84
2022/05/06 03:47:47;;;;;;;28.73;12.25;;;7.80;75.60;;;;;;4176895;28;20059;-83
2022/05/06 03:52:10;;;;;;;28.08;12.18;;;7.80;75.60;;;;;;4182482;28;20063;-83
2022/05/06 03:54:11;;;;;;;31.52;13.13;;;7.80;75.60;;;;;;4180841;28;20025;-83
2022/05/06 03:56:11;;;;;;;29.88;12.77;;;7.70;75.60;;;;;;4178890;28;20029;-83
2022/05/06 03:58:12;;;;;;;26.30;12.55;;;7.70;75.70;;;;;;4176981;28;20477;-83
2022/05/06 04:00:15;;;;;;;29.65;12.65;;;7.70;75.70;;;;;;4176984;28;20052;-83
2022/05/06 04:02:15;;;;;;;31.80;14.33;;;7.70;75.70;;;;;;4183458;28;20028;-83
2022/05/06 04:04:16;;;;;;;31.38;13.52;;;7.70;75.80;;;;;;4180508;28;20652;-83
2022/05/06 04:06:17;;;;;;;35.60;14.90;;;7.70;75.80;;;;;;4184849;28;20028;-83
2022/05/06 04:08:18;;;;;;;36.40;14.70;;;7.70;76.00;;;;;;4184305;28;20093;-83
2022/05/06 04:10:18;;;;;;;41.00;15.73;;;7.80;76.10;;;;;;4165623;28;20029;-83
2022/05/06 04:12:21;;;;;;;38.80;15.48;;;7.80;76.30;;;;;;4180758;28;20480;-83
2022/05/06 04:14:22;;;;;;;45.72;17.10;;;7.80;76.40;;;;;;4180940;28;20515;-83
2022/05/06 04:16:24;;;;;;;43.28;16.10;;;7.80;76.40;;;;;;4167215;28;20079;-83
2022/05/06 04:18:25;;;;;;;45.42;16.77;;;7.80;76.40;;;;;;4182593;28;20452;-83
2022/05/06 04:25:04;;;;;;;46.88;17.70;;;7.90;76.70;;;;;;4184042;28;20017;-83
2022/05/06 04:27:06;;;;;;;39.13;16.48;;;7.80;76.70;;;;;;4183142;28;20094;-83
2022/05/06 04:29:06;;;;;;;44.17;18.10;;;7.90;76.80;;;;;;4178817;28;20025;-83
2022/05/06 04:31:07;;;;;;;44.10;16.85;;;7.90;77.10;;;;;;4179543;28;20063;-83
2022/05/06 04:33:08;;;;;;;43.28;16.95;;;7.90;77.10;;;;;;4182314;28;20028;-83
2022/05/06 04:35:09;;;;;;;44.25;16.60;;;8.00;77.30;;;;;;4179415;28;20036;-84
2022/05/06 04:37:10;;;;;;;43.35;16.33;;;8.00;77.30;;;;;;4183043;28;20033;-83
2022/05/06 04:39:11;;;;;;;38.05;17.13;;;8.00;77.50;;;;;;4164974;28;20386;-83
2022/05/06 04:41:12;;;;;;;39.60;16.42;;;8.10;77.60;;;;;;4181100;28;20528;-83
2022/05/06 04:43:13;;;;;;;36.55;17.05;;;8.20;77.60;;;;;;4179705;28;20052;-82
2022/05/06 04:45:13;;;;;;;35.97;16.02;;;8.00;77.60;;;;;;4181117;28;20055;-84
2022/05/06 04:47:14;;;;;;;36.30;15.32;;;8.10;77.60;;;;;;4164671;28;20493;-83
2022/05/06 04:49:15;;;;;;;36.85;15.43;;;8.20;77.60;;;;;;4175601;28;20028;-84
2022/05/06 04:51:16;;;;;;;38.78;16.90;;;8.20;77.70;;;;;;4183297;28;20115;-84
2022/05/06 04:53:17;;;;;;;37.40;15.93;;;8.30;77.90;;;;;;4159554;28;20045;-84
2022/05/06 04:55:17;;;;;;;43.15;16.20;;;8.20;78.70;;;;;;4185577;28;20103;-84
2022/05/06 04:57:18;;;;;;;40.28;16.52;;;8.30;78.00;;;;;;4163217;28;20095;-83
2022/05/06 04:59:22;;;;;;;33.78;14.70;;;8.30;78.00;;;;;;4183470;28;20021;-83
2022/05/06 05:01:22;;;;;;;40.08;15.75;;;8.40;78.10;;;;;;4180903;28;21099;-83
2022/05/06 05:03:23;;;;;;;37.33;15.30;;;8.30;77.90;;;;;;4181287;28;20029;-83
2022/05/06 05:05:26;;;;;;;37.85;15.68;;;8.40;78.00;;;;;;4164745;28;20476;-84
2022/05/06 05:07:27;;;;;;;36.38;16.13;;;8.50;78.10;;;;;;4179815;28;20029;-85
2022/05/06 05:09:29;;;;;;;35.67;16.88;;;8.50;78.10;;;;;;4180352;28;20031;-84
2022/05/06 05:11:29;;;;;;;39.00;16.48;;;8.40;78.10;;;;;;4185552;28;20075;-84
2022/05/06 05:13:38;;;;;;;37.35;16.38;;;8.50;78.90;;;;;;4179273;28;20030;-84
2022/05/06 05:15:39;;;;;;;34.45;15.13;;;8.50;78.10;;;;;;4180354;28;20037;-85
2022/05/06 05:17:39;;;;;;;31.20;15.00;;;8.60;78.10;;;;;;4190507;28;20094;-83
2022/05/06 05:19:40;;;;;;;31.98;16.35;;;8.50;78.00;;;;;;4186411;28;20127;-84
2022/05/06 05:21:41;;;;;;;34.75;15.05;;;8.60;79.10;;;;;;4186092;28;20067;-83
2022/05/06 05:23:42;;;;;;;34.10;16.17;;;8.70;79.20;;;;;;4178498;28;20021;-84
2022/05/06 05:25:43;;;;;;;28.10;14.25;;;8.60;78.30;;;;;;4182775;28;20104;-84
2022/05/06 05:27:44;;;;;;;30.23;14.93;;;8.70;78.30;;;;;;4197093;28;20029;-84
2022/05/06 05:29:44;;;;;;;39.97;16.73;;;8.80;78.40;;;;;;4189179;28;20043;-84
2022/05/06 05:31:45;;;;;;;37.97;17.80;;;8.70;78.50;;;;;;4188234;28;20037;-85
2022/05/06 05:33:46;;;;;;;33.90;16.70;;;8.80;78.70;;;;;;4185425;28;20039;-85
2022/05/06 05:35:46;;;;;;;33.15;16.92;;;8.70;78.10;;;;;;4185320;28;20045;-84
2022/05/06 05:37:47;;;;;;;33.60;17.60;;;8.90;78.30;;;;;;4181879;28;20049;-84
2022/05/06 05:39:48;;;;;;;36.80;17.88;;;8.80;78.10;;;;;;4185045;28;20060;-85
2022/05/06 05:41:49;;;;;;;36.92;16.92;;;8.90;78.20;;;;;;4184588;28;20025;-84
2022/05/06 05:48:28;;;;;;;38.33;16.77;;;9.00;78.00;;;;;;4190525;28;20212;-84
2022/05/06 05:50:29;;;;;;;37.13;16.70;;;9.00;78.10;;;;;;4189942;28;20021;-84
2022/05/06 05:52:30;;;;;;;41.65;16.67;;;9.00;78.20;;;;;;4185113;28;20052;-83
2022/05/06 05:54:30;;;;;;;43.25;18.63;;;9.00;78.40;;;;;;4190913;28;20033;-84
2022/05/06 05:56:32;;;;;;;39.33;17.58;;;9.10;78.50;;;;;;4183930;28;20036;-84
2022/05/06 05:58:34;;;;;;;42.72;17.95;;;9.10;79.10;;;;;;4168467;28;20052;-84
2022/05/06 06:00:36;;;;;;;41.88;18.33;;;9.10;78.70;;;;;;4187281;28;20456;-84
2022/05/06 06:02:36;;;;;;;41.20;17.25;;;9.20;78.90;;;;;;4184208;28;20325;-85
2022/05/06 06:04:38;;;;;;;37.88;16.40;;;9.20;78.80;;;;;;4176553;28;20025;-84
2022/05/06 06:06:39;;;;;;;41.13;17.70;;;9.20;78.70;;;;;;4180804;28;20035;-84
2022/05/06 06:08:40;;;;;;;43.03;17.38;;;9.30;78.70;;;;;;4167628;28;20060;-84
2022/05/06 06:10:41;;;;;;;38.30;15.95;;;9.30;78.90;;;;;;4185620;28;20089;-84
2022/05/06 06:12:41;;;;;;;41.17;17.90;;;9.30;78.60;;;;;;4188423;28;20564;-84
2022/05/06 06:14:42;;;;;;;40.55;17.77;;;9.40;78.80;;;;;;4167403;28;20065;-85
2022/05/06 06:16:43;;;;;;;39.58;18.02;;;9.40;78.90;;;;;;4168669;28;20028;-84
2022/05/06 06:18:44;;;;;;;42.83;18.67;;;9.50;78.90;;;;;;4183863;28;20021;-84
2022/05/06 06:20:44;;;;;;;40.35;18.48;;;9.50;79.20;;;;;;4175425;28;20025;-84
2022/05/06 06:22:45;;;;;;;37.33;15.80;;;9.50;78.90;;;;;;4190096;28;20033;-84
2022/05/06 06:24:46;;;;;;;41.97;17.95;;;9.60;79.00;;;;;;4185954;28;20028;-85
2022/05/06 06:26:46;;;;;;;42.00;18.15;;;9.70;79.20;;;;;;4190306;28;20044;-85
2022/05/06 06:28:47;;;;;;;41.03;17.77;;;9.80;79.40;;;;;;4188339;28;20039;-84
2022/05/06 06:30:48;;;;;;;52.65;18.15;;;9.90;80.20;;;;;;4152163;28;20030;-83
2022/05/06 06:32:50;;;;;;;43.10;19.63;;;10.00;79.60;;;;;;4169627;28;20109;-83
2022/05/06 06:34:54;;;;;;;43.90;20.40;;;10.00;79.60;;;;;;4190070;28;20037;-83
2022/05/06 06:36:55;;;;;;;39.00;19.20;;;10.10;79.30;;;;;;4185377;28;20546;-84
2022/05/06 06:38:56;;;;;;;38.70;19.02;;;10.20;79.20;;;;;;4171176;28;20080;-83
2022/05/06 06:40:56;;;;;;;54.53;19.80;;;10.20;78.90;;;;;;4182835;28;20032;-84
2022/05/06 06:43:02;;;;;;;37.70;17.10;;;10.20;78.70;;;;;;4193802;28;20104;-84
2022/05/06 06:45:03;;;;;;;44.72;20.23;;;10.40;78.50;;;;;;4186547;28;20032;-83
2022/05/06 06:47:10;;;;;;;46.78;19.23;;;10.40;78.20;;;;;;4182436;28;20089;-85
2022/05/06 06:49:11;;;;;;;43.75;19.70;;;10.40;77.90;;;;;;4184358;28;20132;-83
2022/05/06 06:51:12;;;;;;;46.60;19.63;;;10.60;77.50;;;;;;4185341;28;20020;-84
2022/05/06 06:53:12;;;;;;;47.13;20.60;;;10.60;77.20;;;;;;4188391;28;20039;-84
2022/05/06 06:55:13;;;;;;;43.25;20.27;;;10.50;76.90;;;;;;4185429;28;20504;-84
2022/05/06 06:57:13;;;;;;;48.10;20.08;;;10.60;76.70;;;;;;4187627;28;20077;-84
2022/05/06 06:59:14;;;;;;;47.45;20.98;;;10.60;76.60;;;;;;4185664;28;20064;-84
2022/05/06 07:01:15;;;;;;;47.97;20.38;;;10.60;76.50;;;;;;4185038;28;20033;-84
2022/05/06 07:03:16;;;;;;;42.85;18.45;;;10.70;76.40;;;;;;4183383;28;20021;-85
2022/05/06 07:05:17;;;;;;;51.35;20.70;;;10.70;76.30;;;;;;4186836;28;20059;-84
2022/05/06 07:11:57;;;;;;;45.65;20.40;;;10.80;76.20;;;;;;4183579;28;20032;-85
2022/05/06 07:13:57;;;;;;;49.03;21.10;;;10.90;76.20;;;;;;4168535;28;20029;-85
2022/05/06 07:15:58;;;;;;;51.97;20.92;;;10.80;76.00;;;;;;4166756;28;20507;-84
2022/05/06 07:17:59;;;;;;;50.05;21.90;;;10.90;75.90;;;;;;4188112;28;20256;-84
2022/05/06 07:19:59;;;;;;;52.10;22.38;;;10.90;75.80;;;;;;4184425;28;20025;-84
2022/05/06 07:22:00;;;;;;;51.88;21.20;;;10.90;75.70;;;;;;4167043;28;20045;-83
2022/05/06 07:24:01;;;;;;;51.75;21.58;;;10.90;75.60;;;;;;4181523;28;20076;-84
2022/05/06 07:26:02;;;;;;;49.03;21.45;;;10.90;75.60;;;;;;4164151;28;20028;-84
2022/05/06 07:28:04;;;;;;;54.17;22.30;;;11.00;75.60;;;;;;4187569;28;20041;-85
2022/05/06 07:30:06;;;;;;;49.85;19.73;;;10.90;75.50;;;;;;4166545;28;20035;-84
2022/05/06 07:32:08;;;;;;;52.08;21.92;;;11.00;75.50;;;;;;4184972;28;20097;-84
2022/05/06 07:34:10;;;;;;;55.03;22.48;;;11.00;75.50;;;;;;4160784;28;20037;-84
2022/05/06 07:36:11;;;;;;;49.90;20.90;;;11.00;75.50;;;;;;4179138;28;20123;-84
2022/05/06 07:38:34;;;;;;;52.17;21.73;;;11.00;75.50;;;;;;4179399;28;20021;-84
2022/05/06 07:41:20;;;;;;;53.85;22.20;;;11.10;75.80;;;;;;4150703;28;20091;-86
2022/05/06 07:43:21;;;;;;;55.92;22.63;;;11.10;75.80;;;;;;4177457;28;20057;-85
2022/05/06 07:46:09;;;;;;;52.15;21.95;;;11.20;75.80;;;;;;4179616;28;20106;-85
2022/05/06 07:48:30;;;;;;;54.20;20.45;;;11.20;75.70;;;;;;4112848;28;20134;-84
2022/05/06 07:50:32;;;;;;;53.03;22.50;;;11.30;75.50;;;;;;4125787;28;20281;-84
2022/05/06 07:52:32;;;;;;;59.05;22.92;;;11.30;75.50;;;;;;4126147;28;20229;-85
2022/05/06 07:54:33;;;;;;;55.13;22.25;;;11.40;75.60;;;;;;4110056;28;20082;-84
2022/05/06 07:56:43;;;;;;;54.20;21.63;;;11.50;75.60;;;;;;4124273;28;20097;-85
2022/05/06 07:58:43;;;;;;;55.20;22.45;;;11.50;75.50;;;;;;4127075;28;20434;-84
2022/05/06 08:00:44;;;;;;;57.88;23.83;;;11.50;75.50;;;;;;4127073;28;20038;-84
2022/05/06 08:05:05;;;;;;;46.53;21.45;;;11.60;75.10;;;;;;4127731;28;20041;-84
2022/05/06 08:07:08;;;;;;;51.90;21.10;;;11.60;75.00;;;;;;4128118;28;20050;-84
2022/05/06 08:09:08;;;;;;;47.53;19.67;;;11.70;75.20;;;;;;4128108;28;20049;-86
2022/05/06 08:11:09;;;;;;;48.97;20.38;;;11.70;75.40;;;;;;4126693;28;20484;-84
2022/05/06 08:13:12;;;;;;;55.70;22.23;;;11.90;75.60;;;;;;4128398;28;20750;-85
2022/05/06 08:15:13;;;;;;;56.95;21.65;;;11.80;75.80;;;;;;4113653;28;20969;-83
2022/05/06 08:17:14;;;;;;;54.95;22.35;;;12.00;75.60;;;;;;4112726;28;20035;-84
2022/05/06 08:19:15;;;;;;;58.55;23.10;;;12.00;76.10;;;;;;4126821;28;20074;-84
2022/05/06 08:21:16;;;;;;;50.85;20.90;;;12.10;75.20;;;;;;4123026;28;20034;-84
2022/05/06 08:23:16;;;;;;;58.03;21.05;;;12.20;74.90;;;;;;4125594;28;20092;-85
2022/05/06 08:25:19;;;;;;;53.00;21.80;;;12.20;74.60;;;;;;4155663;28;20053;-84
2022/05/06 08:28:27;;;;;;;56.85;23.27;;;12.30;74.40;;;;;;4158706;28;20037;-84
2022/05/06 08:30:28;;;;;;;60.25;23.13;;;12.40;74.00;;;;;;4157564;28;20041;-85
2022/05/06 08:32:28;;;;;;;56.83;23.48;;;12.50;73.90;;;;;;4176250;28;20033;-85
2022/05/06 08:34:29;;;;;;;61.97;24.65;;;12.50;73.40;;;;;;4156699;28;21210;-85
2022/05/06 08:36:30;;;;;;;60.90;23.48;;;12.60;73.10;;;;;;4176442;28;20072;-84
2022/05/06 08:38:31;;;;;;;63.13;25.38;;;12.70;73.10;;;;;;4174118;28;20385;-84
2022/05/06 08:40:35;;;;;;;66.70;26.52;;;12.70;72.90;;;;;;4158584;28;20034;-83
2022/05/06 08:42:36;;;;;;;56.85;24.30;;;12.80;72.40;;;;;;4174824;28;20032;-84
2022/05/06 08:51:40;;;;;;;62.92;24.38;;;13.00;71.80;;;;;;4174205;28;20033;-85
2022/05/06 08:53:41;;;;;;;52.75;23.08;;;13.10;71.70;;;;;;4174899;28;20111;-84
2022/05/06 08:55:42;;;;;;;56.28;23.33;;;13.10;71.60;;;;;;4175024;28;20044;-85
2022/05/06 08:57:46;;;;;;;53.97;23.30;;;13.30;71.60;;;;;;4174645;28;20195;-85
2022/05/06 08:59:51;;;;;;;55.40;24.05;;;13.30;71.30;;;;;;4186457;28;20118;-84
2022/05/06 09:01:53;;;;;;;57.75;24.80;;;13.30;71.00;;;;;;4177018;28;20570;-84
2022/05/06 09:03:55;;;;;;;60.45;24.70;;;13.40;70.80;;;;;;4164015;28;20033;-84
2022/05/06 09:05:59;;;;;;;53.75;23.70;;;13.50;70.50;;;;;;4175538;28;21280;-84
2022/05/06 09:10:39;;;;;;;58.35;25.20;;;13.70;70.00;;;;;;4111414;28;20138;-84
2022/05/06 09:12:45;;;;;;;57.08;24.08;;;13.70;68.70;;;;;;4124079;28;20142;-85
2022/05/06 09:20:17;;;;;;;54.10;24.38;;;14.00;67.70;;;;;;4098267;28;19937;-86
2022/05/06 09:23:01;;;;;;;58.92;25.48;;;14.20;67.90;;;;;;4114926;28;20038;-86
2022/05/06 09:25:01;;;;;;;56.30;24.25;;;14.20;68.40;;;;;;4114164;28;20035;-85
2022/05/06 09:27:05;;;;;;;56.85;24.33;;;14.30;67.60;;;;;;4111536;28;20031;-85
2022/05/06 09:29:06;;;;;;;53.15;23.08;;;14.40;67.20;;;;;;4113112;28;20078;-86
2022/05/06 09:31:24;;;;;;;52.58;24.08;;;14.50;67.20;;;;;;4110544;28;20177;-87
2022/05/06 09:33:51;;;;;;;49.45;23.08;;;14.60;66.10;;;;;;4110466;28;20126;-86
2022/05/06 09:35:57;;;;;;;54.38;25.05;;;14.60;65.70;;;;;;4110935;28;20057;-86
2022/05/06 09:37:58;;;;;;;48.47;21.77;;;14.70;65.50;;;;;;4111358;28;20044;-86
2022/05/06 09:40:18;;;;;;;55.72;24.67;;;14.80;65.70;;;;;;4111466;28;21355;-86
2022/05/06 09:42:24;;;;;;;53.30;24.25;;;15.00;64.80;;;;;;4111395;28;20102;-85
2022/05/06 09:44:25;;;;;;;51.35;23.05;;;14.90;64.80;;;;;;4110696;28;20043;-86
2022/05/06 09:46:25;;;;;;;50.30;21.25;;;15.00;64.60;;;;;;4110109;28;20049;-87
2022/05/06 09:48:26;;;;;;;48.00;22.45;;;15.00;64.00;;;;;;4122020;28;20042;-86
2022/05/06 09:50:38;;;;;;;43.13;20.23;;;15.10;63.80;;;;;;4125138;28;20043;-86
2022/05/06 09:52:39;;;;;;;41.95;19.40;;;15.10;63.40;;;;;;4126390;28;20060;-86
2022/05/06 09:54:44;;;;;;;48.33;21.35;;;15.20;63.80;;;;;;4122740;28;20034;-85
2022/05/06 09:57:04;;;;;;;42.13;20.20;;;15.20;63.00;;;;;;4138020;28;20038;-86
2022/05/06 09:59:08;;;;;;;42.78;21.50;;;15.30;62.60;;;;;;4172855;28;20032;-85
2022/05/06 10:01:09;;;;;;;45.58;19.77;;;15.30;62.60;;;;;;4171340;28;20021;-86
2022/05/06 10:03:10;;;;;;;40.88;19.95;;;15.40;62.40;;;;;;4170050;28;20095;-86
2022/05/06 10:05:55;;;;;;;38.63;18.67;;;15.50;62.40;;;;;;4173150;28;20048;-85
2022/05/06 10:08:03;;;;;;;42.92;20.05;;;15.50;62.00;;;;;;4119592;28;20045;-86
2022/05/06 10:10:09;;;;;;;37.65;17.50;;;15.50;61.30;;;;;;4121075;28;20034;-85
2022/05/06 10:12:11;;;;;;;36.90;19.25;;;15.60;61.50;;;;;;4119131;28;20233;-86
2022/05/06 10:15:02;;;;;;;43.90;20.60;;;15.70;60.80;;;;;;4123287;28;20422;-86
2022/05/06 10:17:03;;;;;;;43.28;19.45;;;15.70;59.50;;;;;;4090390;28;20061;-86
2022/05/06 10:22:05;;;;;;;38.03;17.35;;;15.80;60.00;;;;;;4011313;29;20711;-85
2022/05/06 10:24:15;;;;;;;33.80;16.65;;;15.80;60.00;;;;;;4026578;29;20121;-85
2022/05/06 10:26:45;;;;;;;32.78;17.05;;;15.80;60.10;;;;;;4029766;29;20053;-86
2022/05/06 10:34:17;;;;;;;34.50;17.40;;;16.00;60.30;;;;;;4033332;29;20045;-84
2022/05/06 10:36:50;;;;;;;37.33;18.63;;;16.10;59.60;;;;;;4037528;29;20041;-83
2022/05/06 10:38:50;;;;;;;37.28;18.23;;;16.20;59.20;;;;;;4031972;29;20029;-83
2022/05/06 10:41:24;;;;;;;30.38;16.88;;;16.20;59.30;;;;;;4009759;29;20705;-84
2022/05/06 10:43:46;;;;;;;41.17;19.65;;;16.30;59.40;;;;;;3982159;29;20079;-82
2022/05/06 10:45:47;;;;;;;34.38;18.80;;;16.30;59.00;;;;;;3982937;29;20057;-83
2022/05/06 10:50:39;;;;;;;28.73;15.98;;;16.50;59.10;;;;;;3983587;29;20571;-82
2022/05/06 10:55:56;;;;;;;32.13;15.48;;;16.50;57.20;;;;;;3980094;29;20046;-84
2022/05/06 10:58:05;;;;;;;29.40;15.88;;;16.60;58.00;;;;;;3980740;29;20102;-84
2022/05/06 11:00:09;;;;;;;31.90;15.05;;;16.70;58.20;;;;;;4046929;29;20111;-84
2022/05/06 11:02:13;;;;;;;32.00;15.18;;;16.80;58.30;;;;;;4059588;29;20020;-84
2022/05/06 11:04:17;;;;;;;23.90;13.57;;;16.80;58.10;;;;;;4064990;29;20113;-84
2022/05/06 11:06:22;;;;;;;36.13;15.23;;;16.90;58.30;;;;;;4045866;29;20163;-85
2022/05/06 11:08:35;;;;;;;25.20;13.32;;;17.00;57.80;;;;;;4059900;29;20063;-84
2022/05/06 11:10:36;;;;;;;28.23;14.25;;;17.00;57.20;;;;;;4060029;29;20616;-82
2022/05/06 11:12:52;;;;;;;24.10;13.32;;;17.10;57.40;;;;;;4057349;29;20056;-84
2022/05/06 11:14:57;;;;;;;25.15;14.00;;;17.10;56.70;;;;;;4061573;29;20032;-84
2022/05/06 11:17:27;;;;;;;22.38;13.55;;;17.20;56.70;;;;;;4063397;29;20035;-85
2022/05/06 11:19:33;;;;;;;25.17;14.18;;;17.20;56.30;;;;;;4049412;29;20063;-84
2022/05/06 11:21:34;;;;;;;27.05;13.25;;;17.40;56.80;;;;;;4061893;29;20170;-84
2022/05/06 11:23:35;;;;;;;27.35;14.40;;;17.30;56.90;;;;;;4057094;29;21794;-83
2022/05/06 11:25:38;;;;;;;30.50;14.77;;;17.40;56.60;;;;;;4059011;29;20154;-83
2022/05/06 11:27:38;;;;;;;27.88;14.52;;;17.50;56.20;;;;;;4057431;29;20036;-84
2022/05/06 11:33:18;;;;;;;25.30;14.32;;;17.60;56.00;;;;;;4081063;28;20068;-84
2022/05/06 11:35:22;;;;;;;23.85;13.93;;;17.60;55.80;;;;;;4087157;28;20511;-86